Time;durP1;ratioP1;P1;durP2;ratioP2;P2;SDS_P1;SDS_P2;PMS_P1;PMS_P2;Temp;Humidity;BMP_temperature;BMP_pressure;BME280_temperature;BME280_humidity;BME280_pressure;Samples;Min_cycle;Max_cycle;Signal;HPM_P1;HPM_P2
2023/02/11 00:00:32;;;;;;;;;;;;;;;;;;5092045;28;19970;-85
2023/02/11 00:02:58;;;;;;;;;;;;;;;;;;5091145;28;20363;-85
2023/02/11 00:05:23;;;;;;;;;;;;;;;;;;5094199;28;19939;-85
2023/02/11 00:07:49;;;;;;;;;;;;;;;;;;5094718;28;20398;-83
2023/02/11 00:10:14;;;;;;;;;;;;;;;;;;5076732;28;19920;-86
2023/02/11 00:12:41;;;;;;;;;;;;;;;;;;5076350;28;19923;-85
2023/02/11 00:15:07;;;;;;;;;;;;;;;;;;5094600;28;20251;-84
2023/02/11 00:17:32;;;;;;;;;;;;;;;;;;5076257;28;19927;-86
2023/02/11 00:19:58;;;;;;;;;;;;;;;;;;5094121;28;19946;-87
2023/02/11 00:22:23;;;;;;;;;;;;;;;;;;5094235;28;19973;-88
2023/02/11 00:24:49;;;;;;;;;;;;;;;;;;5060761;28;19916;-88
2023/02/11 00:27:14;;;;;;;;;;;;;;;;;;5055819;28;19974;-86
2023/02/11 00:29:39;;;;;;;;;;;;;;;;;;5056009;28;19917;-88
2023/02/11 00:32:05;;;;;;;;;;;;;;;;;;5073872;28;20329;-85
2023/02/11 00:34:31;;;;;;;;;;;;;;;;;;5073827;28;19917;-82
2023/02/11 00:36:57;;;;;;;;;;;;;;;;;;5073844;28;19917;-84
2023/02/11 00:39:22;;;;;;;;;;;;;;;;;;5073654;28;19962;-85
2023/02/11 00:41:47;;;;;;;;;;;;;;;;;;5073839;28;19983;-86
2023/02/11 00:44:13;;;;;;;;;;;;;;;;;;5055800;28;20007;-83
2023/02/11 00:46:38;;;;;;;;;;;;;;;;;;5055753;28;20295;-82
2023/02/11 00:49:04;;;;;;;;;;;;;;;;;;5055756;28;19925;-83
2023/02/11 00:51:29;;;;;;;;;;;;;;;;;;5073621;28;19927;-84
2023/02/11 00:53:55;;;;;;;;;;;;;;;;;;5081405;28;20007;-84
2023/02/11 00:56:20;;;;;;;;;;;;;;;;;;5093788;28;19916;-80
2023/02/11 00:58:46;;;;;;;;;;;;;;;;;;5093476;28;19918;-82
2023/02/11 01:01:12;;;;;;;;;;;;;;;;;;5075401;28;20287;-81
2023/02/11 01:03:37;;;;;;;;;;;;;;;;;;5075506;28;19967;-79
2023/02/11 01:06:03;;;;;;;;;;;;;;;;;;5093731;28;19923;-82
2023/02/11 01:08:29;;;;;;;;;;;;;;;;;;5093574;28;19916;-80
2023/02/11 01:10:58;;;;;;;;;;;;;;;;;;5093546;28;19927;-81
2023/02/11 01:13:24;;;;;;;;;;;;;;;;;;5089608;28;19921;-79
2023/02/11 01:15:50;;;;;;;;;;;;;;;;;;5073098;28;20347;-80
2023/02/11 01:18:15;;;;;;;;;;;;;;;;;;5073325;28;20019;-83
2023/02/11 01:20:40;;;;;;;;;;;;;;;;;;5072825;28;19929;-86
2023/02/11 01:23:06;;;;;;;;;;;;;;;;;;5073296;28;19982;-83
2023/02/11 01:25:31;;;;;;;;;;;;;;;;;;5055228;28;20375;-82
2023/02/11 01:27:57;;;;;;;;;;;;;;;;;;5055081;28;19923;-86
2023/02/11 01:30:22;;;;;;;;;;;;;;;;;;5055225;28;20328;-83
2023/02/11 01:32:47;;;;;;;;;;;;;;;;;;5055075;28;20326;-84
2023/02/11 01:35:13;;;;;;;;;;;;;;;;;;5073140;28;20009;-83
2023/02/11 01:37:38;;;;;;;;;;;;;;;;;;5073054;28;19923;-85
2023/02/11 01:40:06;;;;;;;;;;;;;;;;;;5072983;28;19942;-86
2023/02/11 01:42:32;;;;;;;;;;;;;;;;;;5087558;28;19916;-84
2023/02/11 01:44:59;;;;;;;;;;;;;;;;;;5093198;28;20010;-83
2023/02/11 01:47:25;;;;;;;;;;;;;;;;;;5093053;28;20359;-82
2023/02/11 01:50:00;;;;;;;;;;;;;;;;;;5075024;28;19959;-83
2023/02/11 01:52:26;;;;;;;;;;;;;;;;;;5093142;28;19916;-84
2023/02/11 01:57:38;;;;;;;;;;;;;;;;;;5093064;28;19919;-84
2023/02/11 02:00:07;;;;;;;;;;;;;;;;;;5092912;28;20398;-84
2023/02/11 02:02:42;;;;;;;;;;;;;;;;;;5075070;28;20339;-85
2023/02/11 02:05:08;;;;;;;;;;;;;;;;;;5074902;28;19916;-83
2023/02/11 02:07:53;;;;;;;;;;;;;;;;;;5092916;28;19950;-87
2023/02/11 02:10:21;;;;;;;;;;;;;;;;;;5061228;28;19916;-82
2023/02/11 02:12:47;;;;;;;;;;;;;;;;;;5092847;28;19916;-85
2023/02/11 02:15:18;;;;;;;;;;;;;;;;;;5092919;28;20322;-85
2023/02/11 02:17:56;;;;;;;;;;;;;;;;;;5074668;28;19916;-84
2023/02/11 02:20:37;;;;;;;;;;;;;;;;;;5074466;28;19986;-85
2023/02/11 02:23:02;;;;;;;;;;;;;;;;;;5091711;28;20477;-85
2023/02/11 02:25:47;;;;;;;;;;;;;;;;;;5072850;28;19921;-82
2023/02/11 02:28:18;;;;;;;;;;;;;;;;;;5074913;28;19916;-83
2023/02/11 02:30:55;;;;;;;;;;;;;;;;;;5076160;28;20007;-81
2023/02/11 02:33:32;;;;;;;;;;;;;;;;;;5058166;28;19967;-81
2023/02/11 02:36:20;;;;;;;;;;;;;;;;;;5076057;28;20307;-82
2023/02/11 02:38:52;;;;;;;;;;;;;;;;;;5056287;28;20011;-81
2023/02/11 02:41:20;;;;;;;;;;;;;;;;;;5075943;28;19962;-81
2023/02/11 02:43:47;;;;;;;;;;;;;;;;;;5075859;28;19939;-83
2023/02/11 02:46:12;;;;;;;;;;;;;;;;;;5075880;28;19920;-81
2023/02/11 02:48:39;;;;;;;;;;;;;;;;;;5057762;28;20449;-82
2023/02/11 02:51:10;;;;;;;;;;;;;;;;;;5075743;28;19943;-84
2023/02/11 02:53:43;;;;;;;;;;;;;;;;;;5075796;28;19916;-81
2023/02/11 02:56:17;;;;;;;;;;;;;;;;;;5057757;28;19939;-82
2023/02/11 02:58:57;;;;;;;;;;;;;;;;;;5075663;28;19916;-81
2023/02/11 03:01:26;;;;;;;;;;;;;;;;;;5075549;28;20434;-82
2023/02/11 03:03:51;;;;;;;;;;;;;;;;;;5075597;28;20268;-84
2023/02/11 03:06:23;;;;;;;;;;;;;;;;;;5057533;28;19999;-82
2023/02/11 03:08:52;;;;;;;;;;;;;;;;;;5075483;28;19921;-85
2023/02/11 03:11:19;;;;;;;;;;;;;;;;;;5057354;28;20386;-82
2023/02/11 03:13:45;;;;;;;;;;;;;;;;;;5075365;28;19920;-84
2023/02/11 03:16:14;;;;;;;;;;;;;;;;;;5075359;28;19951;-86
2023/02/11 03:18:41;;;;;;;;;;;;;;;;;;5075154;28;20379;-80
2023/02/11 03:21:07;;;;;;;;;;;;;;;;;;5057011;28;19989;-80
2023/02/11 03:23:38;;;;;;;;;;;;;;;;;;5075110;28;19923;-81
2023/02/11 03:26:08;;;;;;;;;;;;;;;;;;5075121;28;19923;-80
2023/02/11 03:28:37;;;;;;;;;;;;;;;;;;5075055;28;20307;-83
2023/02/11 03:31:25;;;;;;;;;;;;;;;;;;5074968;28;19952;-82
2023/02/11 03:33:56;;;;;;;;;;;;;;;;;;5055245;28;19917;-82
2023/02/11 03:36:44;;;;;;;;;;;;;;;;;;5057002;28;20334;-86
2023/02/11 03:39:11;;;;;;;;;;;;;;;;;;5074777;28;19916;-85
2023/02/11 03:41:38;;;;;;;;;;;;;;;;;;5074848;28;20003;-86
2023/02/11 03:44:04;;;;;;;;;;;;;;;;;;5074789;28;19924;-85
2023/02/11 03:46:32;;;;;;;;;;;;;;;;;;5074732;28;19916;-84
2023/02/11 03:49:08;;;;;;;;;;;;;;;;;;5056784;28;19917;-82
2023/02/11 03:51:34;;;;;;;;;;;;;;;;;;5074692;28;20335;-82
2023/02/11 03:54:02;;;;;;;;;;;;;;;;;;5074507;28;19917;-84
2023/02/11 03:56:29;;;;;;;;;;;;;;;;;;5074557;28;19916;-86
2023/02/11 03:58:55;;;;;;;;;;;;;;;;;;5074635;28;19920;-82
2023/02/11 04:01:20;;;;;;;;;;;;;;;;;;5074690;28;19916;-82
2023/02/11 04:03:46;;;;;;;;;;;;;;;;;;5090624;28;19924;-83
2023/02/11 04:06:11;;;;;;;;;;;;;;;;;;5074875;28;20437;-85
2023/02/11 04:08:36;;;;;;;;;;;;;;;;;;5074632;28;19916;-83
2023/02/11 04:11:02;;;;;;;;;;;;;;;;;;5066334;28;19917;-81
2023/02/11 04:13:27;;;;;;;;;;;;;;;;;;5073493;28;20333;-82
2023/02/11 04:15:53;;;;;;;;;;;;;;;;;;5101282;28;19963;-81
2023/02/11 04:18:18;;;;;;;;;;;;;;;;;;5091845;28;19920;-83
2023/02/11 04:20:44;;;;;;;;;;;;;;;;;;5082601;28;19924;-85
2023/02/11 04:23:09;;;;;;;;;;;;;;;;;;5074662;28;19917;-86
2023/02/11 04:25:35;;;;;;;;;;;;;;;;;;5057096;28;19916;-83
2023/02/11 04:28:00;;;;;;;;;;;;;;;;;;5056110;28;19960;-84
2023/02/11 04:30:26;;;;;;;;;;;;;;;;;;5074163;28;19931;-81
2023/02/11 04:32:53;;;;;;;;;;;;;;;;;;5073955;28;19916;-81
2023/02/11 04:35:18;;;;;;;;;;;;;;;;;;5086995;28;19916;-80
2023/02/11 04:37:43;;;;;;;;;;;;;;;;;;5094286;28;19977;-80
2023/02/11 04:40:09;;;;;;;;;;;;;;;;;;5075796;28;20387;-82
2023/02/11 04:42:34;;;;;;;;;;;;;;;;;;5094083;28;19966;-83
2023/02/11 04:45:00;;;;;;;;;;;;;;;;;;5094199;28;19916;-85
2023/02/11 04:47:26;;;;;;;;;;;;;;;;;;5075754;28;19925;-83
2023/02/11 04:49:51;;;;;;;;;;;;;;;;;;5093674;28;19912;-83
2023/02/11 04:52:16;;;;;;;;;;;;;;;;;;5093787;28;20015;-83
2023/02/11 04:54:42;;;;;;;;;;;;;;;;;;5093914;28;20299;-84
2023/02/11 04:57:07;;;;;;;;;;;;;;;;;;5093769;28;19912;-85
2023/02/11 04:59:33;;;;;;;;;;;;;;;;;;5075488;28;19916;-85
2023/02/11 05:01:58;;;;;;;;;;;;;;;;;;5093819;28;19916;-84
2023/02/11 05:04:24;;;;;;;;;;;;;;;;;;5081314;28;20018;-84
2023/02/11 05:06:49;;;;;;;;;;;;;;;;;;5073456;28;19963;-83
2023/02/11 05:09:15;;;;;;;;;;;;;;;;;;5073396;28;19917;-84
2023/02/11 05:11:41;;;;;;;;;;;;;;;;;;5073396;28;19969;-83
2023/02/11 05:14:06;;;;;;;;;;;;;;;;;;5073592;28;19920;-81
2023/02/11 05:16:32;;;;;;;;;;;;;;;;;;5073371;28;19921;-82
2023/02/11 05:18:57;;;;;;;;;;;;;;;;;;5073019;28;19924;-80
2023/02/11 05:21:23;;;;;;;;;;;;;;;;;;5073294;28;19920;-82
2023/02/11 05:23:48;;;;;;;;;;;;;;;;;;5073199;28;19924;-81
2023/02/11 05:26:14;;;;;;;;;;;;;;;;;;5073243;28;19920;-83
2023/02/11 05:28:39;;;;;;;;;;;;;;;;;;5073246;28;19917;-81
2023/02/11 05:31:05;;;;;;;;;;;;;;;;;;5073212;28;19916;-81
2023/02/11 05:33:31;;;;;;;;;;;;;;;;;;5073073;28;19942;-85
2023/02/11 05:36:00;;;;;;;;;;;;;;;;;;5055104;28;20005;-82
2023/02/11 05:38:26;;;;;;;;;;;;;;;;;;5088666;28;20277;-81
2023/02/11 05:40:51;;;;;;;;;;;;;;;;;;5072989;28;19924;-83
2023/02/11 05:43:17;;;;;;;;;;;;;;;;;;5072972;28;19924;-81
2023/02/11 05:45:42;;;;;;;;;;;;;;;;;;5072985;28;20199;-81
2023/02/11 05:48:08;;;;;;;;;;;;;;;;;;5072963;28;20012;-82
2023/02/11 05:50:33;;;;;;;;;;;;;;;;;;5073069;28;19920;-80
2023/02/11 05:52:58;;;;;;;;;;;;;;;;;;5072929;28;19939;-82
2023/02/11 05:55:24;;;;;;;;;;;;;;;;;;5054847;28;20007;-85
2023/02/11 05:57:49;;;;;;;;;;;;;;;;;;5072839;28;20356;-80
2023/02/11 06:00:15;;;;;;;;;;;;;;;;;;5072819;28;19923;-86
2023/02/11 06:02:40;;;;;;;;;;;;;;;;;;5065228;28;20007;-84
2023/02/11 06:05:06;;;;;;;;;;;;;;;;;;5097007;28;19912;-84
2023/02/11 06:07:31;;;;;;;;;;;;;;;;;;5096955;28;19955;-85
2023/02/11 06:09:57;;;;;;;;;;;;;;;;;;5096878;28;19938;-83
2023/02/11 06:12:23;;;;;;;;;;;;;;;;;;5096824;28;19952;-86
2023/02/11 06:14:48;;;;;;;;;;;;;;;;;;5096787;28;20370;-86
2023/02/11 06:17:14;;;;;;;;;;;;;;;;;;5078564;28;19919;-86
2023/02/11 06:19:39;;;;;;;;;;;;;;;;;;5074877;28;20376;-85
2023/02/11 06:22:04;;;;;;;;;;;;;;;;;;5076338;28;20009;-86
2023/02/11 06:24:30;;;;;;;;;;;;;;;;;;5075258;28;19966;-88
2023/02/11 06:26:55;;;;;;;;;;;;;;;;;;5076348;28;19945;-89
2023/02/11 06:29:20;;;;;;;;;;;;;;;;;;5076541;28;19927;-86
2023/02/11 06:31:46;;;;;;;;;;;;;;;;;;5075134;28;19927;-85
2023/02/11 06:34:11;;;;;;;;;;;;;;;;;;5070082;28;19928;-85
2023/02/11 06:36:40;;;;;;;;;;;;;;;;;;5061783;28;19972;-87
2023/02/11 06:39:06;;;;;;;;;;;;;;;;;;5059430;28;19928;-86
2023/02/11 06:41:31;;;;;;;;;;;;;;;;;;5056158;28;19920;-87
2023/02/11 06:43:57;;;;;;;;;;;;;;;;;;5061799;28;20014;-87
2023/02/11 06:46:22;;;;;;;;;;;;;;;;;;5086261;28;19925;-82
2023/02/11 06:48:47;;;;;;;;;;;;;;;;;;5059086;28;19936;-84
2023/02/11 06:51:13;;;;;;;;;;;;;;;;;;5056669;28;20364;-84
2023/02/11 06:53:44;;;;;;;;;;;;;;;;;;5057266;28;20448;-90
2023/02/11 06:56:11;;;;;;;;;;;;;;;;;;5062247;28;19924;-91
2023/02/11 06:58:37;;;;;;;;;;;;;;;;;;5066699;28;19962;-90
2023/02/11 07:01:06;;;;;;;;;;;;;;;;;;5055579;28;19920;-89
2023/02/11 07:03:34;;;;;;;;;;;;;;;;;;5054295;28;20292;-89
2023/02/11 07:06:00;;;;;;;;;;;;;;;;;;5055745;28;20455;-90
2023/02/11 07:08:25;;;;;;;;;;;;;;;;;;5063157;28;20007;-90
2023/02/11 07:10:51;;;;;;;;;;;;;;;;;;5074824;28;19969;-88
2023/02/11 07:13:34;;;;;;;;;;;;;;;;;;5074471;28;20295;-82
2023/02/11 07:16:04;;;;;;;;;;;;;;;;;;5068624;28;19928;-89
2023/02/11 07:18:30;;;;;;;;;;;;;;;;;;5055653;28;19982;-88
2023/02/11 07:20:55;;;;;;;;;;;;;;;;;;5072903;28;20391;-81
2023/02/11 07:23:21;;;;;;;;;;;;;;;;;;5090755;28;19916;-81
2023/02/11 07:25:46;;;;;;;;;;;;;;;;;;5075148;28;19939;-83
2023/02/11 07:28:11;;;;;;;;;;;;;;;;;;5057210;28;19916;-82
2023/02/11 07:30:37;;;;;;;;;;;;;;;;;;5075107;28;19916;-81
2023/02/11 07:33:02;;;;;;;;;;;;;;;;;;5075095;28;20025;-81
2023/02/11 07:35:27;;;;;;;;;;;;;;;;;;5074992;28;20011;-84
2023/02/11 07:37:53;;;;;;;;;;;;;;;;;;5090594;28;20011;-81
2023/02/11 07:40:18;;;;;;;;;;;;;;;;;;5077287;28;19966;-81
2023/02/11 07:42:44;;;;;;;;;;;;;;;;;;5074923;28;19967;-80
2023/02/11 07:45:10;;;;;;;;;;;;;;;;;;5074853;28;20015;-82
2023/02/11 07:47:36;;;;;;;;;;;;;;;;;;5056898;28;19916;-83
2023/02/11 07:50:01;;;;;;;;;;;;;;;;;;5074808;28;19921;-85
2023/02/11 07:52:30;;;;;;;;;;;;;;;;;;5056755;28;19921;-83
2023/02/11 07:54:55;;;;;;;;;;;;;;;;;;5056686;28;20023;-83
2023/02/11 07:57:21;;;;;;;;;;;;;;;;;;5065352;28;20023;-82
2023/02/11 07:59:46;;;;;;;;;;;;;;;;;;5074436;28;19917;-82
2023/02/11 08:02:12;;;;;;;;;;;;;;;;;;5092763;28;20629;-81
2023/02/11 08:04:37;;;;;;;;;;;;;;;;;;5057242;28;20347;-81
2023/02/11 08:07:03;;;;;;;;;;;;;;;;;;5085897;28;20280;-83
2023/02/11 08:09:29;;;;;;;;;;;;;;;;;;5094585;28;19916;-82
2023/02/11 08:11:54;;;;;;;;;;;;;;;;;;5076512;28;19927;-84
2023/02/11 08:14:20;;;;;;;;;;;;;;;;;;5087698;28;19920;-82
2023/02/11 08:16:45;;;;;;;;;;;;;;;;;;5081606;28;19916;-83
2023/02/11 08:19:12;;;;;;;;;;;;;;;;;;5056498;28;20372;-82
2023/02/11 08:21:38;;;;;;;;;;;;;;;;;;5079186;28;19974;-83
2023/02/11 08:24:04;;;;;;;;;;;;;;;;;;5056168;28;19920;-82
2023/02/11 08:26:30;;;;;;;;;;;;;;;;;;5084587;28;19971;-84
2023/02/11 08:28:57;;;;;;;;;;;;;;;;;;5087687;28;20326;-82
2023/02/11 08:31:26;;;;;;;;;;;;;;;;;;5095889;28;19923;-82
2023/02/11 08:33:53;;;;;;;;;;;;;;;;;;5103814;28;19924;-81
2023/02/11 08:36:22;;;;;;;;;;;;;;;;;;5089651;28;19970;-86
2023/02/11 08:38:48;;;;;;;;;;;;;;;;;;5086782;28;20003;-86
2023/02/11 08:41:14;;;;;;;;;;;;;;;;;;5095599;28;19970;-83
2023/02/11 08:43:43;;;;;;;;;;;;;;;;;;5076521;28;19938;-84
2023/02/11 08:46:10;;;;;;;;;;;;;;;;;;5086071;28;19912;-82
2023/02/11 08:48:36;;;;;;;;;;;;;;;;;;5074811;28;20398;-82
2023/02/11 08:51:05;;;;;;;;;;;;;;;;;;5088754;28;19912;-86
2023/02/11 08:53:30;;;;;;;;;;;;;;;;;;5073743;28;20030;-81
2023/02/11 08:55:55;;;;;;;;;;;;;;;;;;5073580;28;19958;-86
2023/02/11 08:58:21;;;;;;;;;;;;;;;;;;5073570;28;20336;-84
2023/02/11 09:00:47;;;;;;;;;;;;;;;;;;5078456;28;19916;-84
2023/02/11 09:03:13;;;;;;;;;;;;;;;;;;5089784;28;20380;-82
2023/02/11 09:05:42;;;;;;;;;;;;;;;;;;5093703;28;20369;-83
2023/02/11 09:08:07;;;;;;;;;;;;;;;;;;5080488;28;20364;-82
2023/02/11 09:10:33;;;;;;;;;;;;;;;;;;5073451;28;19920;-83
2023/02/11 09:12:58;;;;;;;;;;;;;;;;;;5073406;28;20283;-82
2023/02/11 09:15:24;;;;;;;;;;;;;;;;;;5073315;28;19920;-82
2023/02/11 09:17:49;;;;;;;;;;;;;;;;;;5073269;28;20342;-82
2023/02/11 09:20:15;;;;;;;;;;;;;;;;;;5072966;28;19920;-82
2023/02/11 09:22:40;;;;;;;;;;;;;;;;;;5073209;28;20000;-83
2023/02/11 09:25:05;;;;;;;;;;;;;;;;;;5073249;28;20360;-82
2023/02/11 09:27:31;;;;;;;;;;;;;;;;;;5073186;28;19920;-85
2023/02/11 09:29:56;;;;;;;;;;;;;;;;;;5073184;28;20261;-85
2023/02/11 09:32:22;;;;;;;;;;;;;;;;;;5055237;28;20410;-86
2023/02/11 09:34:47;;;;;;;;;;;;;;;;;;5073123;28;19924;-85
2023/02/11 09:37:12;;;;;;;;;;;;;;;;;;5075656;28;19920;-83
2023/02/11 09:39:38;;;;;;;;;;;;;;;;;;5077108;28;19925;-84
2023/02/11 09:42:39;;;;;;;;;;;;;;;;;;5077165;28;19920;-84
2023/02/11 09:45:09;;;;;;;;;;;;;;;;;;5034984;28;20052;-84
2023/02/11 09:47:37;;;;;;;;;;;;;;;;;;5043224;28;20021;-85
2023/02/11 09:50:05;;;;;;;;;;;;;;;;;;5054110;28;19924;-84
2023/02/11 09:52:34;;;;;;;;;;;;;;;;;;5034577;28;19916;-85
2023/02/11 09:55:01;;;;;;;;;;;;;;;;;;5034842;28;19921;-84
2023/02/11 09:57:34;;;;;;;;;;;;;;;;;;5050902;28;20335;-85
2023/02/11 10:00:01;;;;;;;;;;;;;;;;;;5052791;28;19938;-84
2023/02/11 10:02:29;;;;;;;;;;;;;;;;;;5054753;28;19917;-84
2023/02/11 10:05:13;;;;;;;;;;;;;;;;;;5054681;28;19986;-83
2023/02/11 10:07:38;;;;;;;;;;;;;;;;;;5054504;28;19999;-83
2023/02/11 10:10:22;;;;;;;;;;;;;;;;;;5054644;28;20082;-83
2023/02/11 10:13:00;;;;;;;;;;;;;;;;;;5070978;28;20517;-84
2023/02/11 10:15:26;;;;;;;;;;;;;;;;;;5054460;28;20421;-84
2023/02/11 10:18:09;;;;;;;;;;;;;;;;;;5054496;28;20392;-83
2023/02/11 10:20:44;;;;;;;;;;;;;;;;;;5076172;28;19925;-83
2023/02/11 10:23:21;;;;;;;;;;;;;;;;;;5076510;28;19924;-83
2023/02/11 10:25:53;;;;;;;;;;;;;;;;;;5076480;28;19920;-83
2023/02/11 10:28:38;;;;;;;;;;;;;;;;;;5076342;28;20007;-83
2023/02/11 10:31:14;;;;;;;;;;;;;;;;;;5079111;28;20015;-83
2023/02/11 10:33:42;;;;;;;;;;;;;;;;;;5089779;28;19964;-83
2023/02/11 10:36:10;;;;;;;;;;;;;;;;;;5081973;28;19956;-84
2023/02/11 10:38:36;;;;;;;;;;;;;;;;;;5077670;28;21811;-83
2023/02/11 10:41:02;;;;;;;;;;;;;;;;;;5085588;28;20007;-82
2023/02/11 10:43:29;;;;;;;;;;;;;;;;;;5095445;28;20727;-84
2023/02/11 10:45:55;;;;;;;;;;;;;;;;;;5079962;28;20481;-83
2023/02/11 10:48:39;;;;;;;;;;;;;;;;;;5089931;28;20029;-84
2023/02/11 10:51:08;;;;;;;;;;;;;;;;;;5082320;28;19939;-83
2023/02/11 10:53:34;;;;;;;;;;;;;;;;;;5087171;28;19924;-84
2023/02/11 10:56:02;;;;;;;;;;;;;;;;;;5080577;28;20419;-88
2023/02/11 10:58:43;;;;;;;;;;;;;;;;;;5085965;28;20042;-86
2023/02/11 11:01:09;;;;;;;;;;;;;;;;;;5058903;28;20443;-85
2023/02/11 11:03:52;;;;;;;;;;;;;;;;;;5074756;28;20026;-85
2023/02/11 11:06:29;;;;;;;;;;;;;;;;;;5089028;28;20292;-83
2023/02/11 11:08:54;;;;;;;;;;;;;;;;;;5087118;28;19920;-85
2023/02/11 11:11:21;;;;;;;;;;;;;;;;;;5088879;28;19972;-85
2023/02/11 11:13:52;;;;;;;;;;;;;;;;;;5075772;28;19917;-85
2023/02/11 11:16:21;;;;;;;;;;;;;;;;;;5076733;28;20429;-85
2023/02/11 11:18:47;;;;;;;;;;;;;;;;;;5082558;28;20348;-85
2023/02/11 11:21:13;;;;;;;;;;;;;;;;;;5042996;28;20380;-85
2023/02/11 11:23:39;;;;;;;;;;;;;;;;;;5045895;28;19927;-84
2023/02/11 11:26:14;;;;;;;;;;;;;;;;;;5054137;28;19921;-86
2023/02/11 11:28:51;;;;;;;;;;;;;;;;;;5052487;28;20436;-84
2023/02/11 11:31:19;;;;;;;;;;;;;;;;;;5055252;28;20003;-85
2023/02/11 11:33:45;;;;;;;;;;;;;;;;;;5055212;28;19962;-85
2023/02/11 11:36:12;;;;;;;;;;;;;;;;;;5055079;28;20394;-83
2023/02/11 11:38:43;;;;;;;;;;;;;;;;;;5053656;28;19923;-83
2023/02/11 11:41:21;;;;;;;;;;;;;;;;;;5054864;28;19917;-84
2023/02/11 11:43:54;;;;;;;;;;;;;;;;;;5054904;28;20410;-83
2023/02/11 11:46:25;;;;;;;;;;;;;;;;;;5053603;28;19951;-83
2023/02/11 11:48:52;;;;;;;;;;;;;;;;;;5054920;28;19917;-84
2023/02/11 11:51:17;;;;;;;;;;;;;;;;;;5054841;28;19917;-83
2023/02/11 11:53:45;;;;;;;;;;;;;;;;;;5054816;28;19917;-84
2023/02/11 11:56:13;;;;;;;;;;;;;;;;;;5054589;28;20284;-86
2023/02/11 11:58:38;;;;;;;;;;;;;;;;;;5054594;28;20330;-83
2023/02/11 12:01:19;;;;;;;;;;;;;;;;;;5053517;28;19923;-84
2023/02/11 12:04:02;;;;;;;;;;;;;;;;;;5053322;28;19923;-85
2023/02/11 12:06:28;;;;;;;;;;;;;;;;;;5054504;28;19917;-83
2023/02/11 12:08:59;;;;;;;;;;;;;;;;;;5054423;28;19921;-83
2023/02/11 12:11:39;;;;;;;;;;;;;;;;;;5054693;28;19932;-85
2023/02/11 12:14:11;;;;;;;;;;;;;;;;;;5054460;28;19924;-84
2023/02/11 12:16:54;;;;;;;;;;;;;;;;;;5054508;28;19962;-83
2023/02/11 12:19:43;;;;;;;;;;;;;;;;;;5053280;28;19921;-84
2023/02/11 12:22:18;;;;;;;;;;;;;;;;;;5054696;28;20011;-84
2023/02/11 12:25:02;;;;;;;;;;;;;;;;;;5054447;28;19924;-84
2023/02/11 12:27:46;;;;;;;;;;;;;;;;;;5054787;28;20372;-83
2023/02/11 12:30:30;;;;;;;;;;;;;;;;;;5059518;28;19917;-83
2023/02/11 12:32:55;;;;;;;;;;;;;;;;;;5068619;28;19925;-83
2023/02/11 12:35:27;;;;;;;;;;;;;;;;;;5073191;28;19924;-83
2023/02/11 12:37:56;;;;;;;;;;;;;;;;;;5060027;28;19924;-85
2023/02/11 12:40:30;;;;;;;;;;;;;;;;;;5054445;28;19923;-84
2023/02/11 12:43:17;;;;;;;;;;;;;;;;;;5054096;28;20036;-85
2023/02/11 12:45:45;;;;;;;;;;;;;;;;;;5060010;28;19920;-84
2023/02/11 12:48:16;;;;;;;;;;;;;;;;;;5073886;28;19986;-85
2023/02/11 12:50:45;;;;;;;;;;;;;;;;;;5073847;28;20010;-85
2023/02/11 12:53:23;;;;;;;;;;;;;;;;;;5065753;28;19920;-86
2023/02/11 12:55:50;;;;;;;;;;;;;;;;;;5073350;28;19924;-83
2023/02/11 12:58:20;;;;;;;;;;;;;;;;;;5073674;28;20387;-85
2023/02/11 13:00:54;;;;;;;;;;;;;;;;;;5072590;28;20011;-85
2023/02/11 13:03:27;;;;;;;;;;;;;;;;;;5073462;28;19917;-84
2023/02/11 13:05:54;;;;;;;;;;;;;;;;;;5073595;28;19920;-85
2023/02/11 13:08:22;;;;;;;;;;;;;;;;;;5073381;28;20307;-85
2023/02/11 13:10:51;;;;;;;;;;;;;;;;;;5073314;28;19920;-85
2023/02/11 13:13:19;;;;;;;;;;;;;;;;;;5073471;28;20264;-84
2023/02/11 13:15:57;;;;;;;;;;;;;;;;;;5073415;28;19927;-87
2023/02/11 13:18:29;;;;;;;;;;;;;;;;;;5073387;28;19916;-83
2023/02/11 13:21:07;;;;;;;;;;;;;;;;;;5090909;28;19954;-85
2023/02/11 13:23:34;;;;;;;;;;;;;;;;;;5074934;28;20227;-84
2023/02/11 13:26:06;;;;;;;;;;;;;;;;;;5093553;28;20004;-84
2023/02/11 13:28:39;;;;;;;;;;;;;;;;;;5075357;28;19916;-83
2023/02/11 13:31:06;;;;;;;;;;;;;;;;;;5093492;28;19920;-83
2023/02/11 13:33:41;;;;;;;;;;;;;;;;;;5093475;28;20007;-83
2023/02/11 13:36:07;;;;;;;;;;;;;;;;;;5093444;28;20399;-84
2023/02/11 13:38:33;;;;;;;;;;;;;;;;;;5093409;28;20002;-83
2023/02/11 13:41:03;;;;;;;;;;;;;;;;;;5093217;28;19916;-83
2023/02/11 13:43:29;;;;;;;;;;;;;;;;;;5075293;28;20464;-83
2023/02/11 13:46:03;;;;;;;;;;;;;;;;;;5093340;28;19920;-84
2023/02/11 13:48:44;;;;;;;;;;;;;;;;;;5075093;28;19920;-83
2023/02/11 13:51:12;;;;;;;;;;;;;;;;;;5075175;28;19921;-83
2023/02/11 13:53:52;;;;;;;;;;;;;;;;;;5093204;28;20019;-83
2023/02/11 13:56:31;;;;;;;;;;;;;;;;;;5093154;28;19957;-83
2023/02/11 13:58:57;;;;;;;;;;;;;;;;;;5093053;28;20295;-84
2023/02/11 14:08:57;;;;;;;;;;;;;;;;;;5092853;28;19917;-84
2023/02/11 14:10:31;;;;;;;;;;;;;;;;;;5093353;28;19971;-85
2023/02/11 14:13:19;;;;;;;;;;;;;;;;;;5093180;28;19916;-86
2023/02/11 14:15:45;;;;;;;;;;;;;;;;;;5063798;28;19920;-88
2023/02/11 14:18:29;;;;;;;;;;;;;;;;;;5092886;28;19919;-87
2023/02/11 14:21:05;;;;;;;;;;;;;;;;;;5071297;28;20269;-87
2023/02/11 14:23:31;;;;;;;;;;;;;;;;;;5074162;28;19920;-86
2023/02/11 14:26:04;;;;;;;;;;;;;;;;;;5075072;28;20376;-87
2023/02/11 14:28:33;;;;;;;;;;;;;;;;;;5075153;28;20364;-85
2023/02/11 14:31:07;;;;;;;;;;;;;;;;;;5076267;28;19924;-87
2023/02/11 14:33:41;;;;;;;;;;;;;;;;;;5076345;28;19916;-86
2023/02/11 14:36:13;;;;;;;;;;;;;;;;;;5076123;28;19939;-86
2023/02/11 14:38:41;;;;;;;;;;;;;;;;;;5076173;28;19927;-87
2023/02/11 14:41:17;;;;;;;;;;;;;;;;;;5076034;28;19923;-85
2023/02/11 14:44:04;;;;;;;;;;;;;;;;;;5076075;28;19916;-88
2023/02/11 14:46:31;;;;;;;;;;;;;;;;;;5076084;28;19916;-86
2023/02/11 14:48:58;;;;;;;;;;;;;;;;;;5075939;28;19916;-84
2023/02/11 14:51:30;;;;;;;;;;;;;;;;;;5074597;28;20261;-87
2023/02/11 14:53:58;;;;;;;;;;;;;;;;;;5075873;28;19925;-89
2023/02/11 14:56:33;;;;;;;;;;;;;;;;;;5075761;28;19970;-87
2023/02/11 14:58:58;;;;;;;;;;;;;;;;;;5075770;28;19917;-87
2023/02/11 15:01:27;;;;;;;;;;;;;;;;;;5075613;28;19924;-88
2023/02/11 15:03:55;;;;;;;;;;;;;;;;;;5075690;28;19916;-86
2023/02/11 15:06:25;;;;;;;;;;;;;;;;;;5075636;28;19942;-88
2023/02/11 15:08:52;;;;;;;;;;;;;;;;;;5075577;28;19920;-86
2023/02/11 15:11:19;;;;;;;;;;;;;;;;;;5075592;28;20057;-88
2023/02/11 15:13:48;;;;;;;;;;;;;;;;;;5075454;28;19920;-88
2023/02/11 15:16:17;;;;;;;;;;;;;;;;;;5071076;28;19919;-85
2023/02/11 15:18:45;;;;;;;;;;;;;;;;;;5073041;28;20021;-85
2023/02/11 15:21:11;;;;;;;;;;;;;;;;;;5073681;28;19928;-83
2023/02/11 15:23:37;;;;;;;;;;;;;;;;;;5074578;28;19928;-84
2023/02/11 15:26:11;;;;;;;;;;;;;;;;;;5074313;28;19923;-85
2023/02/11 15:28:36;;;;;;;;;;;;;;;;;;5072943;28;19917;-83
2023/02/11 15:31:22;;;;;;;;;;;;;;;;;;5074357;28;19921;-84
2023/02/11 15:33:47;;;;;;;;;;;;;;;;;;5074033;28;20033;-83
2023/02/11 15:36:14;;;;;;;;;;;;;;;;;;5074255;28;20379;-84
2023/02/11 15:38:40;;;;;;;;;;;;;;;;;;5074613;28;19916;-83
2023/02/11 15:41:06;;;;;;;;;;;;;;;;;;5074931;28;20294;-84
2023/02/11 15:43:45;;;;;;;;;;;;;;;;;;5074953;28;20303;-84
2023/02/11 15:46:12;;;;;;;;;;;;;;;;;;5074825;28;19912;-85
2023/02/11 15:48:51;;;;;;;;;;;;;;;;;;5074916;28;19921;-83
2023/02/11 15:51:21;;;;;;;;;;;;;;;;;;5074718;28;19958;-84
2023/02/11 15:53:51;;;;;;;;;;;;;;;;;;5074672;28;19916;-85
2023/02/11 15:56:41;;;;;;;;;;;;;;;;;;5074607;28;19913;-83
2023/02/11 15:59:11;;;;;;;;;;;;;;;;;;5074566;28;19962;-84
2023/02/11 16:01:38;;;;;;;;;;;;;;;;;;5073308;28;19916;-83
2023/02/11 16:04:04;;;;;;;;;;;;;;;;;;5074553;28;20010;-85
2023/02/11 16:06:39;;;;;;;;;;;;;;;;;;5074398;28;19944;-84
2023/02/11 16:09:20;;;;;;;;;;;;;;;;;;5074533;28;19967;-84
2023/02/11 16:11:46;;;;;;;;;;;;;;;;;;5074520;28;19924;-86
2023/02/11 16:14:26;;;;;;;;;;;;;;;;;;5074259;28;19917;-83
2023/02/11 16:16:56;;;;;;;;;;;;;;;;;;5074259;28;20008;-86
2023/02/11 16:19:23;;;;;;;;;;;;;;;;;;5072755;28;20018;-84
2023/02/11 16:21:49;;;;;;;;;;;;;;;;;;5074193;28;19916;-84
2023/02/11 16:24:26;;;;;;;;;;;;;;;;;;5073028;28;20010;-85
2023/02/11 16:26:53;;;;;;;;;;;;;;;;;;5074117;28;19939;-84
2023/02/11 16:29:26;;;;;;;;;;;;;;;;;;5074015;28;19952;-83
2023/02/11 16:31:52;;;;;;;;;;;;;;;;;;5073953;28;19917;-90
2023/02/11 16:34:19;;;;;;;;;;;;;;;;;;5073949;28;19923;-85
2023/02/11 16:36:45;;;;;;;;;;;;;;;;;;5072569;28;19916;-83
2023/02/11 16:39:10;;;;;;;;;;;;;;;;;;5073945;28;19920;-85
2023/02/11 16:41:36;;;;;;;;;;;;;;;;;;5072478;28;19927;-86
2023/02/11 16:44:01;;;;;;;;;;;;;;;;;;5073942;28;20395;-84
2023/02/11 16:46:27;;;;;;;;;;;;;;;;;;5073646;28;19924;-85
2023/02/11 16:48:56;;;;;;;;;;;;;;;;;;5073974;28;19916;-84
2023/02/11 16:51:22;;;;;;;;;;;;;;;;;;5073889;28;20371;-85
2023/02/11 16:53:48;;;;;;;;;;;;;;;;;;5073995;28;19974;-83
2023/02/11 16:56:14;;;;;;;;;;;;;;;;;;5076743;28;19956;-84
2023/02/11 16:58:40;;;;;;;;;;;;;;;;;;5079813;28;19923;-82
2023/02/11 17:01:05;;;;;;;;;;;;;;;;;;5091079;28;19920;-84
2023/02/11 17:03:36;;;;;;;;;;;;;;;;;;5090060;28;19956;-86
2023/02/11 17:06:04;;;;;;;;;;;;;;;;;;5076857;28;19920;-83